sensor_id;sensor_type;location;lat;lon;timestamp;P1;durP1;ratioP1;P2;durP2;ratioP2
47796;SDS011;33558;50.922;14.068;2023-04-26T00:02:04;6.47;;;2.20;;
47796;SDS011;33558;50.922;14.068;2023-04-26T00:04:30;5.07;;;2.43;;
47796;SDS011;33558;50.922;14.068;2023-04-26T00:06:58;5.13;;;1.97;;
47796;SDS011;33558;50.922;14.068;2023-04-26T00:09:25;6.60;;;2.10;;
47796;SDS011;33558;50.922;14.068;2023-04-26T00:11:53;4.00;;;2.20;;
47796;SDS011;33558;50.922;14.068;2023-04-26T00:14:20;7.30;;;2.40;;
47796;SDS011;33558;50.922;14.068;2023-04-26T00:16:47;7.00;;;2.50;;
47796;SDS011;33558;50.922;14.068;2023-04-26T00:19:13;4.33;;;2.03;;
47796;SDS011;33558;50.922;14.068;2023-04-26T00:21:41;5.50;;;2.27;;
47796;SDS011;33558;50.922;14.068;2023-04-26T00:24:08;8.53;;;2.40;;
47796;SDS011;33558;50.922;14.068;2023-04-26T00:26:35;5.60;;;2.40;;
47796;SDS011;33558;50.922;14.068;2023-04-26T00:29:03;10.33;;;2.80;;
47796;SDS011;33558;50.922;14.068;2023-04-26T00:31:31;4.47;;;2.10;;
47796;SDS011;33558;50.922;14.068;2023-04-26T00:33:58;7.33;;;2.17;;
47796;SDS011;33558;50.922;14.068;2023-04-26T00:36:24;6.37;;;2.77;;
47796;SDS011;33558;50.922;14.068;2023-04-26T00:38:51;8.50;;;2.40;;
47796;SDS011;33558;50.922;14.068;2023-04-26T00:41:18;6.87;;;2.33;;
47796;SDS011;33558;50.922;14.068;2023-04-26T00:43:46;6.70;;;2.33;;
47796;SDS011;33558;50.922;14.068;2023-04-26T00:46:14;7.77;;;2.57;;
47796;SDS011;33558;50.922;14.068;2023-04-26T00:48:42;4.13;;;2.40;;
47796;SDS011;33558;50.922;14.068;2023-04-26T00:51:08;4.13;;;2.63;;
47796;SDS011;33558;50.922;14.068;2023-04-26T00:53:35;5.70;;;2.80;;
47796;SDS011;33558;50.922;14.068;2023-04-26T00:56:02;6.33;;;2.63;;
47796;SDS011;33558;50.922;14.068;2023-04-26T00:58:30;5.13;;;2.70;;
47796;SDS011;33558;50.922;14.068;2023-04-26T01:00:57;3.83;;;2.43;;
47796;SDS011;33558;50.922;14.068;2023-04-26T01:03:25;4.67;;;2.43;;
47796;SDS011;33558;50.922;14.068;2023-04-26T01:05:52;6.83;;;3.40;;
47796;SDS011;33558;50.922;14.068;2023-04-26T01:08:19;11.17;;;2.40;;
47796;SDS011;33558;50.922;14.068;2023-04-26T01:10:46;3.97;;;2.30;;
47796;SDS011;33558;50.922;14.068;2023-04-26T01:13:12;4.73;;;2.37;;
47796;SDS011;33558;50.922;14.068;2023-04-26T01:15:41;4.20;;;2.50;;
47796;SDS011;33558;50.922;14.068;2023-04-26T01:18:09;7.30;;;2.60;;
47796;SDS011;33558;50.922;14.068;2023-04-26T01:20:38;7.67;;;2.60;;
47796;SDS011;33558;50.922;14.068;2023-04-26T01:23:06;6.90;;;3.23;;
47796;SDS011;33558;50.922;14.068;2023-04-26T01:25:33;8.00;;;2.60;;
47796;SDS011;33558;50.922;14.068;2023-04-26T01:28:00;7.33;;;3.37;;
47796;SDS011;33558;50.922;14.068;2023-04-26T01:30:27;6.07;;;2.53;;
47796;SDS011;33558;50.922;14.068;2023-04-26T01:32:54;8.93;;;2.63;;
47796;SDS011;33558;50.922;14.068;2023-04-26T01:35:23;10.10;;;2.73;;
47796;SDS011;33558;50.922;14.068;2023-04-26T01:37:50;8.57;;;2.90;;
47796;SDS011;33558;50.922;14.068;2023-04-26T01:40:18;6.10;;;3.03;;
47796;SDS011;33558;50.922;14.068;2023-04-26T01:42:45;5.97;;;2.90;;
47796;SDS011;33558;50.922;14.068;2023-04-26T01:45:12;4.63;;;2.77;;
47796;SDS011;33558;50.922;14.068;2023-04-26T01:47:57;6.37;;;2.80;;
47796;SDS011;33558;50.922;14.068;2023-04-26T01:50:24;8.87;;;2.77;;
47796;SDS011;33558;50.922;14.068;2023-04-26T01:52:51;4.47;;;2.70;;
47796;SDS011;33558;50.922;14.068;2023-04-26T01:55:19;8.10;;;2.83;;
47796;SDS011;33558;50.922;14.068;2023-04-26T01:57:46;5.17;;;2.57;;
47796;SDS011;33558;50.922;14.068;2023-04-26T02:00:13;7.47;;;2.93;;
47796;SDS011;33558;50.922;14.068;2023-04-26T02:02:40;8.77;;;3.27;;
47796;SDS011;33558;50.922;14.068;2023-04-26T02:05:09;9.20;;;3.40;;
47796;SDS011;33558;50.922;14.068;2023-04-26T02:07:36;4.43;;;2.80;;
47796;SDS011;33558;50.922;14.068;2023-04-26T02:10:05;6.27;;;2.77;;
47796;SDS011;33558;50.922;14.068;2023-04-26T02:12:34;5.83;;;2.60;;
47796;SDS011;33558;50.922;14.068;2023-04-26T02:15:01;5.67;;;3.00;;
47796;SDS011;33558;50.922;14.068;2023-04-26T02:17:27;5.63;;;2.83;;
47796;SDS011;33558;50.922;14.068;2023-04-26T02:19:54;5.37;;;2.60;;
47796;SDS011;33558;50.922;14.068;2023-04-26T02:22:22;7.03;;;2.67;;
47796;SDS011;33558;50.922;14.068;2023-04-26T02:24:49;5.40;;;3.03;;
47796;SDS011;33558;50.922;14.068;2023-04-26T02:27:16;8.90;;;3.47;;
47796;SDS011;33558;50.922;14.068;2023-04-26T02:29:44;5.37;;;2.73;;
47796;SDS011;33558;50.922;14.068;2023-04-26T02:32:11;7.20;;;3.40;;
47796;SDS011;33558;50.922;14.068;2023-04-26T02:34:38;8.07;;;2.70;;
47796;SDS011;33558;50.922;14.068;2023-04-26T02:37:05;5.60;;;2.83;;
47796;SDS011;33558;50.922;14.068;2023-04-26T02:39:32;5.17;;;2.73;;
47796;SDS011;33558;50.922;14.068;2023-04-26T02:41:58;6.03;;;2.77;;
47796;SDS011;33558;50.922;14.068;2023-04-26T02:44:27;5.10;;;3.23;;
47796;SDS011;33558;50.922;14.068;2023-04-26T02:46:56;6.03;;;3.27;;
47796;SDS011;33558;50.922;14.068;2023-04-26T02:49:23;7.47;;;3.00;;
47796;SDS011;33558;50.922;14.068;2023-04-26T02:51:50;9.67;;;3.03;;
47796;SDS011;33558;50.922;14.068;2023-04-26T02:54:17;6.57;;;3.37;;
47796;SDS011;33558;50.922;14.068;2023-04-26T02:56:43;6.53;;;3.00;;
47796;SDS011;33558;50.922;14.068;2023-04-26T02:59:10;7.57;;;3.10;;
47796;SDS011;33558;50.922;14.068;2023-04-26T03:01:37;6.20;;;3.07;;
47796;SDS011;33558;50.922;14.068;2023-04-26T03:04:05;6.67;;;3.33;;
47796;SDS011;33558;50.922;14.068;2023-04-26T03:06:34;5.23;;;3.03;;
47796;SDS011;33558;50.922;14.068;2023-04-26T03:09:00;7.27;;;3.67;;
47796;SDS011;33558;50.922;14.068;2023-04-26T03:11:27;7.83;;;3.13;;
47796;SDS011;33558;50.922;14.068;2023-04-26T03:13:55;6.63;;;3.10;;
47796;SDS011;33558;50.922;14.068;2023-04-26T03:16:22;6.70;;;3.17;;
47796;SDS011;33558;50.922;14.068;2023-04-26T03:18:48;7.70;;;3.07;;
47796;SDS011;33558;50.922;14.068;2023-04-26T03:21:16;7.60;;;3.63;;
47796;SDS011;33558;50.922;14.068;2023-04-26T03:23:43;5.57;;;3.10;;
47796;SDS011;33558;50.922;14.068;2023-04-26T03:26:11;7.63;;;3.57;;
47796;SDS011;33558;50.922;14.068;2023-04-26T03:28:40;8.37;;;3.40;;
47796;SDS011;33558;50.922;14.068;2023-04-26T03:31:06;8.37;;;3.20;;
47796;SDS011;33558;50.922;14.068;2023-04-26T03:33:33;7.17;;;3.57;;
47796;SDS011;33558;50.922;14.068;2023-04-26T03:36:00;12.10;;;3.60;;
47796;SDS011;33558;50.922;14.068;2023-04-26T03:38:28;8.47;;;3.30;;
47796;SDS011;33558;50.922;14.068;2023-04-26T03:40:55;8.03;;;3.00;;
47796;SDS011;33558;50.922;14.068;2023-04-26T03:43:23;6.87;;;3.03;;
47796;SDS011;33558;50.922;14.068;2023-04-26T03:45:50;7.93;;;3.47;;
47796;SDS011;33558;50.922;14.068;2023-04-26T03:48:16;7.23;;;3.00;;
47796;SDS011;33558;50.922;14.068;2023-04-26T03:50:44;7.97;;;2.97;;
47796;SDS011;33558;50.922;14.068;2023-04-26T03:53:10;8.90;;;3.93;;
47796;SDS011;33558;50.922;14.068;2023-04-26T03:55:39;8.60;;;3.40;;
47796;SDS011;33558;50.922;14.068;2023-04-26T03:58:05;7.60;;;3.57;;
47796;SDS011;33558;50.922;14.068;2023-04-26T04:00:33;7.07;;;3.33;;
47796;SDS011;33558;50.922;14.068;2023-04-26T04:02:59;7.93;;;3.37;;
47796;SDS011;33558;50.922;14.068;2023-04-26T04:05:26;10.63;;;3.40;;
47796;SDS011;33558;50.922;14.068;2023-04-26T04:07:53;15.73;;;5.93;;
47796;SDS011;33558;50.922;14.068;2023-04-26T04:10:20;6.40;;;3.47;;
47796;SDS011;33558;50.922;14.068;2023-04-26T04:12:49;7.03;;;4.03;;
47796;SDS011;33558;50.922;14.068;2023-04-26T04:15:17;8.03;;;3.17;;
47796;SDS011;33558;50.922;14.068;2023-04-26T04:17:46;8.97;;;3.47;;
47796;SDS011;33558;50.922;14.068;2023-04-26T04:20:13;7.80;;;3.67;;
47796;SDS011;33558;50.922;14.068;2023-04-26T04:22:40;7.33;;;3.00;;
47796;SDS011;33558;50.922;14.068;2023-04-26T04:25:08;6.90;;;2.87;;
47796;SDS011;33558;50.922;14.068;2023-04-26T04:27:36;7.30;;;3.77;;
47796;SDS011;33558;50.922;14.068;2023-04-26T04:30:05;8.33;;;4.17;;
47796;SDS011;33558;50.922;14.068;2023-04-26T04:32:33;8.83;;;3.30;;
47796;SDS011;33558;50.922;14.068;2023-04-26T04:35:00;12.03;;;4.17;;
47796;SDS011;33558;50.922;14.068;2023-04-26T04:37:27;8.13;;;4.00;;
47796;SDS011;33558;50.922;14.068;2023-04-26T04:39:57;8.37;;;3.00;;
47796;SDS011;33558;50.922;14.068;2023-04-26T04:42:24;8.73;;;2.43;;
47796;SDS011;33558;50.922;14.068;2023-04-26T04:44:53;11.70;;;2.77;;
47796;SDS011;33558;50.922;14.068;2023-04-26T04:47:22;12.80;;;3.67;;
47796;SDS011;33558;50.922;14.068;2023-04-26T04:49:50;5.43;;;2.40;;
47796;SDS011;33558;50.922;14.068;2023-04-26T04:52:17;8.00;;;2.93;;
47796;SDS011;33558;50.922;14.068;2023-04-26T04:54:46;4.97;;;2.40;;
47796;SDS011;33558;50.922;14.068;2023-04-26T04:57:13;10.63;;;2.53;;
47796;SDS011;33558;50.922;14.068;2023-04-26T04:59:42;9.13;;;2.50;;
47796;SDS011;33558;50.922;14.068;2023-04-26T05:02:09;6.47;;;2.60;;
47796;SDS011;33558;50.922;14.068;2023-04-26T05:04:37;9.60;;;2.80;;
47796;SDS011;33558;50.922;14.068;2023-04-26T05:07:04;7.93;;;2.40;;
47796;SDS011;33558;50.922;14.068;2023-04-26T05:09:32;8.57;;;2.50;;
47796;SDS011;33558;50.922;14.068;2023-04-26T05:11:59;10.07;;;3.57;;
47796;SDS011;33558;50.922;14.068;2023-04-26T05:14:28;7.57;;;2.57;;
47796;SDS011;33558;50.922;14.068;2023-04-26T05:16:55;10.00;;;3.30;;
47796;SDS011;33558;50.922;14.068;2023-04-26T05:19:22;7.20;;;2.73;;
47796;SDS011;33558;50.922;14.068;2023-04-26T05:21:50;7.17;;;2.40;;
47796;SDS011;33558;50.922;14.068;2023-04-26T05:24:17;7.00;;;2.47;;
47796;SDS011;33558;50.922;14.068;2023-04-26T05:26:44;9.20;;;3.33;;
47796;SDS011;33558;50.922;14.068;2023-04-26T05:29:11;6.37;;;2.40;;
47796;SDS011;33558;50.922;14.068;2023-04-26T05:31:44;8.80;;;2.83;;
47796;SDS011;33558;50.922;14.068;2023-04-26T05:34:31;7.77;;;2.40;;
47796;SDS011;33558;50.922;14.068;2023-04-26T05:36:59;6.47;;;2.37;;
47796;SDS011;33558;50.922;14.068;2023-04-26T05:39:26;6.90;;;2.57;;
47796;SDS011;33558;50.922;14.068;2023-04-26T05:41:53;10.47;;;2.40;;
47796;SDS011;33558;50.922;14.068;2023-04-26T05:44:19;6.93;;;1.93;;
47796;SDS011;33558;50.922;14.068;2023-04-26T05:46:46;6.87;;;2.83;;
47796;SDS011;33558;50.922;14.068;2023-04-26T05:49:13;10.40;;;2.77;;
47796;SDS011;33558;50.922;14.068;2023-04-26T05:51:40;10.27;;;3.20;;
47796;SDS011;33558;50.922;14.068;2023-04-26T05:54:08;10.70;;;2.60;;
47796;SDS011;33558;50.922;14.068;2023-04-26T05:56:35;6.90;;;2.73;;
47796;SDS011;33558;50.922;14.068;2023-04-26T05:59:01;7.20;;;2.53;;
47796;SDS011;33558;50.922;14.068;2023-04-26T06:01:29;9.77;;;2.73;;
47796;SDS011;33558;50.922;14.068;2023-04-26T06:03:56;8.83;;;3.13;;
47796;SDS011;33558;50.922;14.068;2023-04-26T06:06:25;7.37;;;2.80;;
47796;SDS011;33558;50.922;14.068;2023-04-26T06:08:52;9.07;;;3.23;;
47796;SDS011;33558;50.922;14.068;2023-04-26T06:11:20;5.53;;;2.90;;
47796;SDS011;33558;50.922;14.068;2023-04-26T06:13:47;7.83;;;2.70;;
47796;SDS011;33558;50.922;14.068;2023-04-26T06:16:14;7.40;;;3.13;;
47796;SDS011;33558;50.922;14.068;2023-04-26T06:18:41;12.77;;;3.17;;
47796;SDS011;33558;50.922;14.068;2023-04-26T06:21:07;10.87;;;3.70;;
47796;SDS011;33558;50.922;14.068;2023-04-26T06:23:35;5.37;;;2.63;;
47796;SDS011;33558;50.922;14.068;2023-04-26T06:26:01;8.00;;;2.63;;
47796;SDS011;33558;50.922;14.068;2023-04-26T06:28:30;5.93;;;2.40;;
47796;SDS011;33558;50.922;14.068;2023-04-26T06:30:57;8.33;;;2.60;;
47796;SDS011;33558;50.922;14.068;2023-04-26T06:33:24;7.30;;;2.73;;
47796;SDS011;33558;50.922;14.068;2023-04-26T06:35:51;4.07;;;2.33;;
47796;SDS011;33558;50.922;14.068;2023-04-26T06:38:18;7.40;;;2.30;;
47796;SDS011;33558;50.922;14.068;2023-04-26T06:40:45;9.07;;;2.73;;
47796;SDS011;33558;50.922;14.068;2023-04-26T06:43:12;15.57;;;4.27;;
47796;SDS011;33558;50.922;14.068;2023-04-26T06:45:40;8.97;;;3.20;;
47796;SDS011;33558;50.922;14.068;2023-04-26T06:48:06;9.43;;;3.03;;
47796;SDS011;33558;50.922;14.068;2023-04-26T06:50:36;5.33;;;2.70;;
47796;SDS011;33558;50.922;14.068;2023-04-26T06:53:03;10.83;;;3.17;;
47796;SDS011;33558;50.922;14.068;2023-04-26T06:55:29;8.43;;;3.40;;
47796;SDS011;33558;50.922;14.068;2023-04-26T06:57:56;14.00;;;3.20;;
47796;SDS011;33558;50.922;14.068;2023-04-26T07:00:23;6.27;;;3.13;;
47796;SDS011;33558;50.922;14.068;2023-04-26T07:02:51;9.10;;;3.30;;
47796;SDS011;33558;50.922;14.068;2023-04-26T07:05:18;9.90;;;3.43;;
47796;SDS011;33558;50.922;14.068;2023-04-26T07:07:44;9.80;;;2.70;;
47796;SDS011;33558;50.922;14.068;2023-04-26T07:10:11;7.93;;;2.50;;
47796;SDS011;33558;50.922;14.068;2023-04-26T07:12:38;9.03;;;2.40;;
47796;SDS011;33558;50.922;14.068;2023-04-26T07:15:05;10.70;;;3.10;;
47796;SDS011;33558;50.922;14.068;2023-04-26T07:17:33;7.37;;;3.17;;
47796;SDS011;33558;50.922;14.068;2023-04-26T07:20:01;6.43;;;2.90;;
47796;SDS011;33558;50.922;14.068;2023-04-26T07:22:28;9.30;;;3.27;;
47796;SDS011;33558;50.922;14.068;2023-04-26T07:24:55;11.53;;;2.90;;
47796;SDS011;33558;50.922;14.068;2023-04-26T07:27:22;12.47;;;3.17;;
47796;SDS011;33558;50.922;14.068;2023-04-26T07:29:52;5.43;;;2.00;;
47796;SDS011;33558;50.922;14.068;2023-04-26T07:32:19;13.67;;;2.47;;
47796;SDS011;33558;50.922;14.068;2023-04-26T07:34:45;12.03;;;2.17;;
47796;SDS011;33558;50.922;14.068;2023-04-26T07:37:13;8.87;;;2.73;;
47796;SDS011;33558;50.922;14.068;2023-04-26T07:39:40;6.97;;;2.80;;
47796;SDS011;33558;50.922;14.068;2023-04-26T07:42:12;6.57;;;2.50;;
47796;SDS011;33558;50.922;14.068;2023-04-26T07:44:39;8.10;;;2.07;;
47796;SDS011;33558;50.922;14.068;2023-04-26T07:47:10;5.60;;;2.23;;
47796;SDS011;33558;50.922;14.068;2023-04-26T07:49:37;8.33;;;2.43;;
47796;SDS011;33558;50.922;14.068;2023-04-26T07:52:03;7.73;;;1.70;;
47796;SDS011;33558;50.922;14.068;2023-04-26T07:54:31;10.50;;;2.10;;
47796;SDS011;33558;50.922;14.068;2023-04-26T07:57:01;12.13;;;2.73;;
47796;SDS011;33558;50.922;14.068;2023-04-26T07:59:28;9.83;;;2.43;;
47796;SDS011;33558;50.922;14.068;2023-04-26T08:01:55;10.07;;;2.67;;
47796;SDS011;33558;50.922;14.068;2023-04-26T08:04:29;5.83;;;2.10;;
47796;SDS011;33558;50.922;14.068;2023-04-26T08:06:56;5.78;;;1.98;;
47796;SDS011;33558;50.922;14.068;2023-04-26T08:09:23;9.50;;;2.77;;
47796;SDS011;33558;50.922;14.068;2023-04-26T08:11:51;7.43;;;1.90;;
47796;SDS011;33558;50.922;14.068;2023-04-26T08:14:18;7.00;;;2.20;;
47796;SDS011;33558;50.922;14.068;2023-04-26T08:16:45;10.27;;;2.93;;
47796;SDS011;33558;50.922;14.068;2023-04-26T08:19:12;10.37;;;2.27;;
47796;SDS011;33558;50.922;14.068;2023-04-26T08:21:38;9.37;;;2.20;;
47796;SDS011;33558;50.922;14.068;2023-04-26T08:24:05;7.10;;;1.90;;
47796;SDS011;33558;50.922;14.068;2023-04-26T08:26:32;6.53;;;1.80;;
47796;SDS011;33558;50.922;14.068;2023-04-26T08:29:00;7.93;;;1.87;;
47796;SDS011;33558;50.922;14.068;2023-04-26T08:31:27;4.77;;;1.73;;
47796;SDS011;33558;50.922;14.068;2023-04-26T08:33:54;8.67;;;1.83;;
47796;SDS011;33558;50.922;14.068;2023-04-26T08:36:21;5.70;;;1.43;;
47796;SDS011;33558;50.922;14.068;2023-04-26T08:38:47;9.73;;;2.57;;
47796;SDS011;33558;50.922;14.068;2023-04-26T08:41:15;11.47;;;1.90;;
47796;SDS011;33558;50.922;14.068;2023-04-26T08:43:48;10.50;;;2.10;;
47796;SDS011;33558;50.922;14.068;2023-04-26T08:46:18;4.83;;;1.93;;
47796;SDS011;33558;50.922;14.068;2023-04-26T08:48:46;6.70;;;1.70;;
47796;SDS011;33558;50.922;14.068;2023-04-26T08:51:17;3.63;;;1.63;;
47796;SDS011;33558;50.922;14.068;2023-04-26T08:53:44;8.87;;;2.13;;
47796;SDS011;33558;50.922;14.068;2023-04-26T08:56:11;8.53;;;2.20;;
47796;SDS011;33558;50.922;14.068;2023-04-26T08:58:38;6.20;;;1.60;;
47796;SDS011;33558;50.922;14.068;2023-04-26T09:01:04;8.67;;;1.93;;
47796;SDS011;33558;50.922;14.068;2023-04-26T09:03:33;7.53;;;1.87;;
47796;SDS011;33558;50.922;14.068;2023-04-26T09:06:00;6.30;;;1.77;;
47796;SDS011;33558;50.922;14.068;2023-04-26T09:08:27;4.87;;;1.53;;
47796;SDS011;33558;50.922;14.068;2023-04-26T09:10:54;8.50;;;1.87;;
47796;SDS011;33558;50.922;14.068;2023-04-26T09:13:26;6.47;;;1.60;;
47796;SDS011;33558;50.922;14.068;2023-04-26T09:15:53;7.00;;;1.80;;
47796;SDS011;33558;50.922;14.068;2023-04-26T09:18:21;7.63;;;1.73;;
47796;SDS011;33558;50.922;14.068;2023-04-26T09:21:01;6.87;;;1.80;;
47796;SDS011;33558;50.922;14.068;2023-04-26T09:23:29;8.80;;;2.20;;
47796;SDS011;33558;50.922;14.068;2023-04-26T09:26:13;7.93;;;1.87;;
47796;SDS011;33558;50.922;14.068;2023-04-26T09:28:40;5.63;;;1.97;;
47796;SDS011;33558;50.922;14.068;2023-04-26T09:31:07;5.23;;;1.87;;
47796;SDS011;33558;50.922;14.068;2023-04-26T09:33:34;5.60;;;1.60;;
47796;SDS011;33558;50.922;14.068;2023-04-26T09:36:11;6.87;;;1.70;;
47796;SDS011;33558;50.922;14.068;2023-04-26T09:38:40;7.27;;;2.13;;
47796;SDS011;33558;50.922;14.068;2023-04-26T09:41:07;6.33;;;1.90;;
47796;SDS011;33558;50.922;14.068;2023-04-26T09:43:35;6.50;;;1.50;;
47796;SDS011;33558;50.922;14.068;2023-04-26T09:46:02;6.73;;;1.73;;
47796;SDS011;33558;50.922;14.068;2023-04-26T09:48:30;6.83;;;1.70;;
47796;SDS011;33558;50.922;14.068;2023-04-26T09:51:00;6.70;;;2.00;;
47796;SDS011;33558;50.922;14.068;2023-04-26T09:56:07;8.07;;;1.60;;
47796;SDS011;33558;50.922;14.068;2023-04-26T09:58:36;9.03;;;1.97;;
47796;SDS011;33558;50.922;14.068;2023-04-26T10:01:04;4.37;;;2.00;;
47796;SDS011;33558;50.922;14.068;2023-04-26T10:03:32;3.63;;;1.90;;
47796;SDS011;33558;50.922;14.068;2023-04-26T10:05:59;8.60;;;1.70;;
47796;SDS011;33558;50.922;14.068;2023-04-26T10:08:26;7.47;;;2.30;;
47796;SDS011;33558;50.922;14.068;2023-04-26T10:10:55;5.07;;;1.60;;
47796;SDS011;33558;50.922;14.068;2023-04-26T10:13:21;5.60;;;1.70;;
47796;SDS011;33558;50.922;14.068;2023-04-26T10:15:48;6.47;;;1.80;;
47796;SDS011;33558;50.922;14.068;2023-04-26T10:18:15;7.97;;;2.17;;
47796;SDS011;33558;50.922;14.068;2023-04-26T10:20:43;6.97;;;1.70;;
47796;SDS011;33558;50.922;14.068;2023-04-26T10:23:12;6.73;;;1.63;;
47796;SDS011;33558;50.922;14.068;2023-04-26T10:25:44;6.33;;;2.73;;
47796;SDS011;33558;50.922;14.068;2023-04-26T10:28:12;7.70;;;1.90;;
47796;SDS011;33558;50.922;14.068;2023-04-26T10:30:52;5.37;;;1.53;;
47796;SDS011;33558;50.922;14.068;2023-04-26T10:33:19;5.83;;;1.70;;
47796;SDS011;33558;50.922;14.068;2023-04-26T10:36:00;5.80;;;1.87;;
47796;SDS011;33558;50.922;14.068;2023-04-26T10:38:35;4.00;;;1.60;;
47796;SDS011;33558;50.922;14.068;2023-04-26T10:44:35;5.90;;;1.87;;
47796;SDS011;33558;50.922;14.068;2023-04-26T10:47:02;7.73;;;1.80;;
47796;SDS011;33558;50.922;14.068;2023-04-26T10:49:33;6.20;;;1.87;;
47796;SDS011;33558;50.922;14.068;2023-04-26T10:52:10;7.00;;;2.47;;
47796;SDS011;33558;50.922;14.068;2023-04-26T10:54:47;5.70;;;2.00;;
47796;SDS011;33558;50.922;14.068;2023-04-26T10:57:15;4.67;;;1.80;;
47796;SDS011;33558;50.922;14.068;2023-04-26T11:02:58;5.13;;;1.43;;
47796;SDS011;33558;50.922;14.068;2023-04-26T11:05:32;4.77;;;1.70;;
47796;SDS011;33558;50.922;14.068;2023-04-26T11:08:03;4.63;;;2.03;;
47796;SDS011;33558;50.922;14.068;2023-04-26T11:10:31;3.73;;;1.50;;
47796;SDS011;33558;50.922;14.068;2023-04-26T11:12:58;8.37;;;1.80;;
47796;SDS011;33558;50.922;14.068;2023-04-26T11:15:27;5.53;;;1.87;;
47796;SDS011;33558;50.922;14.068;2023-04-26T11:17:54;8.33;;;2.30;;
47796;SDS011;33558;50.922;14.068;2023-04-26T11:20:21;6.13;;;1.80;;
47796;SDS011;33558;50.922;14.068;2023-04-26T11:22:48;5.63;;;1.53;;
47796;SDS011;33558;50.922;14.068;2023-04-26T11:25:15;4.37;;;2.10;;
47796;SDS011;33558;50.922;14.068;2023-04-26T11:27:42;5.57;;;1.70;;
47796;SDS011;33558;50.922;14.068;2023-04-26T11:30:09;6.60;;;1.80;;
47796;SDS011;33558;50.922;14.068;2023-04-26T11:32:38;10.30;;;2.57;;
47796;SDS011;33558;50.922;14.068;2023-04-26T11:35:06;5.80;;;1.90;;
47796;SDS011;33558;50.922;14.068;2023-04-26T11:37:33;5.00;;;1.90;;
47796;SDS011;33558;50.922;14.068;2023-04-26T11:40:00;4.87;;;1.83;;
47796;SDS011;33558;50.922;14.068;2023-04-26T11:42:27;4.47;;;1.80;;
47796;SDS011;33558;50.922;14.068;2023-04-26T11:44:55;4.60;;;2.10;;
47796;SDS011;33558;50.922;14.068;2023-04-26T11:47:23;7.73;;;2.40;;
47796;SDS011;33558;50.922;14.068;2023-04-26T11:49:56;5.87;;;1.93;;
47796;SDS011;33558;50.922;14.068;2023-04-26T11:52:23;5.10;;;1.97;;
47796;SDS011;33558;50.922;14.068;2023-04-26T11:54:56;6.30;;;2.20;;
47796;SDS011;33558;50.922;14.068;2023-04-26T11:57:29;7.93;;;2.20;;
47796;SDS011;33558;50.922;14.068;2023-04-26T12:00:05;5.67;;;2.00;;
47796;SDS011;33558;50.922;14.068;2023-04-26T12:02:35;5.73;;;2.17;;
47796;SDS011;33558;50.922;14.068;2023-04-26T12:05:03;7.47;;;2.30;;
47796;SDS011;33558;50.922;14.068;2023-04-26T12:07:32;7.27;;;2.40;;
47796;SDS011;33558;50.922;14.068;2023-04-26T12:10:12;2.67;;;1.87;;
47796;SDS011;33558;50.922;14.068;2023-04-26T12:12:42;3.83;;;1.80;;
47796;SDS011;33558;50.922;14.068;2023-04-26T12:15:10;4.77;;;2.23;;
47796;SDS011;33558;50.922;14.068;2023-04-26T12:17:37;5.23;;;1.97;;
47796;SDS011;33558;50.922;14.068;2023-04-26T12:20:09;11.87;;;2.47;;
47796;SDS011;33558;50.922;14.068;2023-04-26T12:22:37;3.67;;;1.63;;
47796;SDS011;33558;50.922;14.068;2023-04-26T12:25:04;3.77;;;1.80;;
47796;SDS011;33558;50.922;14.068;2023-04-26T12:27:31;5.80;;;1.93;;
47796;SDS011;33558;50.922;14.068;2023-04-26T12:29:58;8.37;;;1.87;;
47796;SDS011;33558;50.922;14.068;2023-04-26T12:32:25;4.97;;;1.80;;
47796;SDS011;33558;50.922;14.068;2023-04-26T12:34:52;6.27;;;2.00;;
47796;SDS011;33558;50.922;14.068;2023-04-26T12:37:20;4.37;;;2.00;;
47796;SDS011;33558;50.922;14.068;2023-04-26T12:39:46;4.53;;;2.00;;
47796;SDS011;33558;50.922;14.068;2023-04-26T12:42:13;3.83;;;2.20;;
47796;SDS011;33558;50.922;14.068;2023-04-26T12:44:40;4.97;;;1.97;;
47796;SDS011;33558;50.922;14.068;2023-04-26T12:47:06;7.80;;;2.17;;
47796;SDS011;33558;50.922;14.068;2023-04-26T12:49:33;5.23;;;1.90;;
47796;SDS011;33558;50.922;14.068;2023-04-26T12:52:00;6.60;;;1.87;;
47796;SDS011;33558;50.922;14.068;2023-04-26T12:54:29;6.20;;;1.97;;
47796;SDS011;33558;50.922;14.068;2023-04-26T12:56:55;5.87;;;1.97;;
47796;SDS011;33558;50.922;14.068;2023-04-26T12:59:22;5.43;;;2.67;;
47796;SDS011;33558;50.922;14.068;2023-04-26T13:01:48;5.73;;;2.03;;
47796;SDS011;33558;50.922;14.068;2023-04-26T13:04:15;4.80;;;2.33;;
47796;SDS011;33558;50.922;14.068;2023-04-26T13:06:42;7.37;;;3.07;;
47796;SDS011;33558;50.922;14.068;2023-04-26T13:09:08;5.47;;;2.50;;
47796;SDS011;33558;50.922;14.068;2023-04-26T13:11:38;6.23;;;2.40;;
47796;SDS011;33558;50.922;14.068;2023-04-26T13:14:05;6.07;;;2.90;;
47796;SDS011;33558;50.922;14.068;2023-04-26T13:16:32;5.40;;;2.53;;
47796;SDS011;33558;50.922;14.068;2023-04-26T13:18:59;5.53;;;2.30;;
47796;SDS011;33558;50.922;14.068;2023-04-26T13:21:26;7.97;;;2.80;;
47796;SDS011;33558;50.922;14.068;2023-04-26T13:23:53;8.00;;;2.30;;
47796;SDS011;33558;50.922;14.068;2023-04-26T13:26:19;10.73;;;2.20;;
47796;SDS011;33558;50.922;14.068;2023-04-26T13:28:47;5.13;;;2.00;;
47796;SDS011;33558;50.922;14.068;2023-04-26T13:31:14;5.80;;;2.42;;
47796;SDS011;33558;50.922;14.068;2023-04-26T13:33:42;4.40;;;2.20;;
47796;SDS011;33558;50.922;14.068;2023-04-26T13:36:11;4.45;;;1.67;;
47796;SDS011;33558;50.922;14.068;2023-04-26T13:38:39;5.22;;;2.50;;
47796;SDS011;33558;50.922;14.068;2023-04-26T13:41:06;6.30;;;2.28;;
47796;SDS011;33558;50.922;14.068;2023-04-26T13:43:32;7.90;;;3.35;;
47796;SDS011;33558;50.922;14.068;2023-04-26T13:46:01;5.00;;;2.15;;
47796;SDS011;33558;50.922;14.068;2023-04-26T13:48:27;5.70;;;2.53;;
47796;SDS011;33558;50.922;14.068;2023-04-26T13:50:54;10.20;;;2.40;;
47796;SDS011;33558;50.922;14.068;2023-04-26T13:53:21;6.63;;;2.47;;
47796;SDS011;33558;50.922;14.068;2023-04-26T13:55:48;6.53;;;2.67;;
47796;SDS011;33558;50.922;14.068;2023-04-26T13:58:14;4.73;;;2.40;;
47796;SDS011;33558;50.922;14.068;2023-04-26T14:00:41;7.77;;;2.40;;
47796;SDS011;33558;50.922;14.068;2023-04-26T14:03:09;7.47;;;1.80;;
47796;SDS011;33558;50.922;14.068;2023-04-26T14:05:36;3.77;;;1.80;;
47796;SDS011;33558;50.922;14.068;2023-04-26T14:08:03;4.30;;;2.03;;
47796;SDS011;33558;50.922;14.068;2023-04-26T14:10:30;5.13;;;2.20;;
47796;SDS011;33558;50.922;14.068;2023-04-26T14:12:56;6.20;;;2.00;;
47796;SDS011;33558;50.922;14.068;2023-04-26T14:15:23;5.13;;;2.07;;
47796;SDS011;33558;50.922;14.068;2023-04-26T14:17:50;5.90;;;2.30;;
47796;SDS011;33558;50.922;14.068;2023-04-26T14:20:18;5.30;;;2.22;;
47796;SDS011;33558;50.922;14.068;2023-04-26T14:22:44;4.90;;;2.37;;
47796;SDS011;33558;50.922;14.068;2023-04-26T14:25:12;5.53;;;2.73;;
47796;SDS011;33558;50.922;14.068;2023-04-26T14:27:39;5.30;;;2.70;;
47796;SDS011;33558;50.922;14.068;2023-04-26T14:30:06;7.13;;;2.57;;
47796;SDS011;33558;50.922;14.068;2023-04-26T14:32:33;5.73;;;2.13;;
47796;SDS011;33558;50.922;14.068;2023-04-26T14:35:00;5.83;;;2.40;;
47796;SDS011;33558;50.922;14.068;2023-04-26T14:37:28;6.13;;;2.20;;
47796;SDS011;33558;50.922;14.068;2023-04-26T14:39:55;9.87;;;2.43;;
47796;SDS011;33558;50.922;14.068;2023-04-26T14:42:22;5.20;;;2.10;;
47796;SDS011;33558;50.922;14.068;2023-04-26T14:44:49;6.33;;;2.10;;
47796;SDS011;33558;50.922;14.068;2023-04-26T14:47:15;6.00;;;2.20;;